Time;durP1;ratioP1;P1;durP2;ratioP2;P2;SDS_P1;SDS_P2;PMS_P1;PMS_P2;Temp;Humidity;BMP_temperature;BMP_pressure;BME280_temperature;BME280_humidity;BME280_pressure;Samples;Min_cycle;Max_cycle;Signal;HPM_P1;HPM_P2
2022/08/19 00:16:05;;;;;;;;;;;;;;;11.67;100.00;99290.81;6120430;22;20354;-87
2022/08/19 00:18:31;;;;;;;;;;;;;;;11.71;100.00;99297.69;6150679;23;20045;-93
2022/08/19 00:20:56;;;;;;;;;;;;;;;11.79;100.00;99303.41;6148589;23;19970;-86
2022/08/19 00:23:21;;;;;;;;;;;;;;;11.73;100.00;99300.25;6150302;23;19913;-86
2022/08/19 00:25:47;;;;;;;;;;;;;;;11.84;100.00;99294.31;6150274;23;19922;-87
2022/08/19 00:28:14;;;;;;;;;;;;;;;11.79;100.00;99298.13;6149977;23;19917;-88
2022/08/19 00:30:40;;;;;;;;;;;;;;;11.85;100.00;99293.41;6148050;23;20265;-89
2022/08/19 00:33:07;;;;;;;;;;;;;;;11.79;100.00;99286.63;6150133;23;20331;-86
2022/08/19 00:35:33;;;;;;;;;;;;;;;11.91;100.00;99285.94;6150246;23;19916;-88
2022/08/19 00:37:59;;;;;;;;;;;;;;;11.96;100.00;99288.38;6148675;23;20289;-88
2022/08/19 00:40:25;;;;;;;;;;;;;;;11.81;100.00;99280.28;6150090;23;20038;-87
2022/08/19 00:42:53;;;;;;;;;;;;;;;12.03;100.00;99279.13;6149848;23;19919;-87
2022/08/19 00:45:20;;;;;;;;;;;;;;;11.85;100.00;99285.44;6147323;23;20243;-86
2022/08/19 00:47:45;;;;;;;;;;;;;;;12.09;100.00;99286.72;6148530;23;20316;-88
2022/08/19 00:50:12;;;;;;;;;;;;;;;12.02;100.00;99288.03;6149940;23;19917;-88
2022/08/19 00:52:42;;;;;;;;;;;;;;;12.23;100.00;99290.41;6148700;23;19944;-87
2022/08/19 00:55:09;;;;;;;;;;;;;;;12.16;100.00;99284.59;6123743;23;19913;-88
2022/08/19 00:57:38;;;;;;;;;;;;;;;12.16;100.00;99280.13;6149795;23;19919;-87
2022/08/19 01:00:05;;;;;;;;;;;;;;;12.25;100.00;99275.22;6147083;23;19928;-88
2022/08/19 01:02:32;;;;;;;;;;;;;;;12.18;100.00;99278.22;6149815;23;19959;-92
2022/08/19 01:04:58;;;;;;;;;;;;;;;12.34;100.00;99272.88;6148917;23;19943;-88
2022/08/19 07:46:44;;;;;;;;;;;;;;;12.77;100.00;99452.06;6260903;22;19965;-87
2022/08/19 07:49:14;;;;;;;;;;;;;;;12.63;100.00;99443.06;6266159;22;20305;-86
2022/08/19 07:51:40;;;;;;;;;;;;;;;12.74;100.00;99444.28;6276085;22;19911;-86
2022/08/19 07:54:05;;;;;;;;;;;;;;;12.66;100.00;99440.25;6274045;22;19989;-86
2022/08/19 07:56:31;;;;;;;;;;;;;;;12.80;100.00;99438.63;6274164;22;19918;-87
2022/08/19 07:58:56;;;;;;;;;;;;;;;12.68;100.00;99437.50;6273749;22;20315;-87
2022/08/19 08:01:23;;;;;;;;;;;;;;;12.85;100.00;99436.53;6274031;22;19919;-87
2022/08/19 08:09:22;;;;;;;;;;;;;;;12.71;100.00;99439.97;6275585;22;19987;-87
2022/08/19 08:11:52;;;;;;;;;;;;;;;12.59;100.00;99451.31;6275452;22;19921;-87
2022/08/19 08:14:22;;;;;;;;;;;;;;;12.72;100.00;99445.22;6274617;22;20323;-87
2022/08/19 08:16:49;;;;;;;;;;;;;;;12.63;100.00;99444.88;6277759;22;20256;-89
2022/08/19 08:19:15;;;;;;;;;;;;;;;12.61;100.00;99446.78;6277848;22;19915;-87
2022/08/19 08:21:40;;;;;;;;;;;;;;;12.64;100.00;99446.59;6277452;22;19911;-87
2022/08/19 08:24:06;;;;;;;;;;;;;;;12.52;100.00;99438.38;6277269;22;19916;-87
2022/08/19 08:26:33;;;;;;;;;;;;;;;12.74;100.00;99439.81;6276018;22;19915;-87
2022/08/19 08:28:58;;;;;;;;;;;;;;;12.58;100.00;99436.31;6275957;22;19915;-87
2022/08/19 08:31:24;;;;;;;;;;;;;;;12.74;100.00;99438.97;6277823;22;19973;-87
2022/08/19 08:33:49;;;;;;;;;;;;;;;12.62;100.00;99441.38;6275798;22;19912;-87
2022/08/19 08:36:14;;;;;;;;;;;;;;;12.87;100.00;99432.81;6277445;22;19911;-87
2022/08/19 08:38:41;;;;;;;;;;;;;;;12.70;100.00;99435.59;6275710;22;19918;-88
2022/08/19 08:41:14;;;;;;;;;;;;;;;12.70;100.00;99430.28;6277649;22;19986;-89
2022/08/19 08:43:43;;;;;;;;;;;;;;;12.76;100.00;99443.22;6275754;22;20347;-88
2022/08/19 08:46:20;;;;;;;;;;;;;;;12.64;100.00;99438.63;6275350;22;19916;-87
2022/08/19 08:48:55;;;;;;;;;;;;;;;12.77;100.00;99434.31;6277105;22;19911;-88
2022/08/19 08:51:26;;;;;;;;;;;;;;;12.66;100.00;99439.38;6277842;22;19912;-88
2022/08/19 08:53:53;;;;;;;;;;;;;;;12.81;100.00;99435.88;6277137;22;20301;-87
2022/08/19 08:56:19;;;;;;;;;;;;;;;12.65;100.00;99430.56;6277205;22;20319;-85
2022/08/19 08:59:03;;;;;;;;;;;;;;;12.79;100.00;99435.06;6275470;22;20195;-86
2022/08/19 09:01:29;;;;;;;;;;;;;;;12.72;100.00;99436.38;6277038;22;19985;-86
2022/08/19 09:03:54;;;;;;;;;;;;;;;12.52;100.00;99434.84;6277013;22;20394;-87
2022/08/19 09:06:42;;;;;;;;;;;;;;;12.74;100.00;99431.84;6276944;22;20315;-86
2022/08/19 09:09:16;;;;;;;;;;;;;;;12.70;100.00;99438.25;6247067;22;19957;-87
2022/08/19 09:11:56;;;;;;;;;;;;;;;12.52;100.00;99434.84;6277075;22;20037;-87
2022/08/19 09:14:34;;;;;;;;;;;;;;;12.67;100.00;99433.16;6275607;22;19918;-87
2022/08/19 09:17:03;;;;;;;;;;;;;;;12.61;100.00;99439.66;6277265;22;19938;-87
2022/08/19 09:19:28;;;;;;;;;;;;;;;12.80;100.00;99428.81;6277004;22;19918;-86
2022/08/19 09:21:54;;;;;;;;;;;;;;;12.66;100.00;99426.94;6276892;22;19997;-87
2022/08/19 09:24:19;;;;;;;;;;;;;;;12.83;100.00;99433.97;6276964;22;19912;-87
2022/08/19 09:26:44;;;;;;;;;;;;;;;12.74;100.00;99430.97;6276419;22;19911;-87
2022/08/19 09:29:10;;;;;;;;;;;;;;;12.64;100.00;99433.31;6275272;22;19922;-87
2022/08/19 09:31:35;;;;;;;;;;;;;;;12.72;100.00;99436.38;6276897;22;20250;-87
2022/08/19 09:34:04;;;;;;;;;;;;;;;12.65;100.00;99429.69;6275402;22;19985;-85
2022/08/19 09:36:32;;;;;;;;;;;;;;;12.79;100.00;99431.56;6276857;22;19915;-86
2022/08/19 09:38:58;;;;;;;;;;;;;;;12.69;100.00;99431.25;6276904;22;19998;-85
2022/08/19 09:41:24;;;;;;;;;;;;;;;12.84;100.00;99429.50;6249566;22;19950;-87
2022/08/19 09:43:55;;;;;;;;;;;;;;;12.69;100.00;99437.41;6272490;22;20313;-86
2022/08/19 09:46:23;;;;;;;;;;;;;;;12.67;100.00;99426.00;6219193;23;19990;-87
2022/08/19 09:48:50;;;;;;;;;;;;;;;12.76;100.00;99427.28;6219131;23;19942;-90
2022/08/19 09:51:17;;;;;;;;;;;;;;;12.61;100.00;99430.84;6219329;23;19911;-87
2022/08/19 09:53:43;;;;;;;;;;;;;;;12.76;100.00;99429.94;6218969;23;19922;-86
2022/08/19 09:56:09;;;;;;;;;;;;;;;12.71;100.00;99429.34;6246216;23;19943;-85
2022/08/19 09:58:35;;;;;;;;;;;;;;;12.90;100.00;99424.66;6244372;23;20275;-86
2022/08/19 10:01:01;;;;;;;;;;;;;;;12.74;100.00;99423.00;6219342;23;19921;-87
2022/08/19 10:03:27;;;;;;;;;;;;;;;12.90;100.00;99432.66;6245766;23;19915;-86
2022/08/19 10:05:53;;;;;;;;;;;;;;;12.76;100.00;99421.97;6245810;23;19922;-86
2022/08/19 10:08:21;;;;;;;;;;;;;;;12.81;100.00;99427.88;6219230;23;19939;-88
2022/08/19 10:10:47;;;;;;;;;;;;;;;12.77;100.00;99434.31;6245746;23;19961;-87
2022/08/19 10:13:13;;;;;;;;;;;;;;;12.77;100.00;99423.69;6245730;23;19939;-87
2022/08/19 10:15:41;;;;;;;;;;;;;;;12.86;100.00;99422.28;6244295;23;20282;-86
2022/08/19 10:18:07;;;;;;;;;;;;;;;12.69;100.00;99420.63;6245603;23;19916;-87
2022/08/19 10:20:32;;;;;;;;;;;;;;;12.83;100.00;99427.81;6245722;23;20386;-87
2022/08/19 10:22:59;;;;;;;;;;;;;;;12.68;100.00;99422.44;6245324;23;19915;-88
2022/08/19 10:25:26;;;;;;;;;;;;;;;12.89;100.00;99425.63;6244128;23;20475;-87
2022/08/19 10:27:51;;;;;;;;;;;;;;;12.78;100.00;99425.41;6245616;23;19943;-87
2022/08/19 10:30:16;;;;;;;;;;;;;;;12.89;100.00;99428.28;6243964;23;19916;-87
2022/08/19 10:32:41;;;;;;;;;;;;;;;12.74;100.00;99423.00;6245543;23;19919;-85
2022/08/19 10:35:08;;;;;;;;;;;;;;;12.76;100.00;99421.97;6245784;23;19911;-85
2022/08/19 10:37:34;;;;;;;;;;;;;;;12.77;100.00;99410.38;6218796;23;19915;-85
2022/08/19 10:39:59;;;;;;;;;;;;;;;12.72;100.00;99425.75;6244295;23;19915;-85
2022/08/19 10:42:24;;;;;;;;;;;;;;;12.88;100.00;99405.31;6245317;23;19958;-84
2022/08/19 10:44:49;;;;;;;;;;;;;;;12.67;100.00;99411.88;6243624;23;19919;-84
2022/08/19 10:47:15;;;;;;;;;;;;;;;12.81;100.00;99409.28;6218974;23;19916;-84
2022/08/19 10:52:35;;;;;;;;;;;;;;;12.71;100.00;99403.59;6198627;23;19919;-85
2022/08/19 10:57:45;;;;;;;;;;;;;;;12.62;100.00;99405.94;6245345;23;19922;-85
2022/08/19 11:00:11;;;;;;;;;;;;;;;12.81;100.00;99401.31;6243724;23;20286;-84
2022/08/19 11:02:36;;;;;;;;;;;;;;;12.64;100.00;99402.28;6245010;23;19962;-87
2022/08/19 11:05:01;;;;;;;;;;;;;;;12.66;100.00;99396.88;6245794;23;20235;-86
2022/08/19 11:07:27;;;;;;;;;;;;;;;12.71;100.00;99381.50;6245183;23;19916;-86
2022/08/19 11:09:52;;;;;;;;;;;;;;;12.63;100.00;99397.03;6245613;23;19912;-85
2022/08/19 11:12:21;;;;;;;;;;;;;;;12.67;100.00;99391.47;6245080;23;19915;-85
2022/08/19 11:14:49;;;;;;;;;;;;;;;12.54;100.00;99396.63;6243521;23;20418;-83
2022/08/19 11:17:15;;;;;;;;;;;;;;;12.77;100.00;99397.09;6244965;23;19922;-86
2022/08/19 11:19:42;;;;;;;;;;;;;;;12.62;100.00;99392.66;6245150;23;19912;-85
2022/08/19 11:22:09;;;;;;;;;;;;;;;12.64;100.00;99390.78;6218297;23;19912;-86
2022/08/19 11:24:35;;;;;;;;;;;;;;;12.68;100.00;99392.31;6218697;23;20316;-86
2022/08/19 11:27:02;;;;;;;;;;;;;;;12.59;100.00;99392.81;6245124;23;19911;-86
2022/08/19 11:29:29;;;;;;;;;;;;;;;12.69;100.00;99394.03;6243499;23;20331;-85
2022/08/19 11:31:54;;;;;;;;;;;;;;;12.59;100.00;99388.41;6244941;23;19915;-87
2022/08/19 11:34:21;;;;;;;;;;;;;;;12.78;100.00;99388.19;6244844;23;19957;-85
2022/08/19 11:36:47;;;;;;;;;;;;;;;12.64;100.00;99386.31;6245069;23;19919;-84
2022/08/19 11:39:14;;;;;;;;;;;;;;;12.73;100.00;99384.91;6244854;23;19912;-88
2022/08/19 11:41:39;;;;;;;;;;;;;;;12.58;100.00;99381.34;6244988;23;20001;-84
2022/08/19 11:44:04;;;;;;;;;;;;;;;12.59;100.00;99382.19;6242999;23;19916;-87
2022/08/19 11:46:30;;;;;;;;;;;;;;;12.76;100.00;99382.09;6243490;23;20323;-85
2022/08/19 11:49:00;;;;;;;;;;;;;;;12.50;100.00;99379.13;6244733;23;19912;-85
2022/08/19 11:51:26;;;;;;;;;;;;;;;12.74;100.00;99376.00;6244979;23;19998;-85
2022/08/19 11:53:55;;;;;;;;;;;;;;;12.62;100.00;99382.91;6218085;23;19919;-84
2022/08/19 11:56:20;;;;;;;;;;;;;;;12.84;100.00;99373.66;6244796;23;19912;-85
2022/08/19 11:58:46;;;;;;;;;;;;;;;12.76;100.00;99379.41;6243201;23;20351;-84
2022/08/19 12:01:13;;;;;;;;;;;;;;;12.90;100.00;99375.97;6243588;23;19916;-84
2022/08/19 12:03:38;;;;;;;;;;;;;;;12.85;100.00;99383.38;6244697;23;19922;-84
2022/08/19 12:06:05;;;;;;;;;;;;;;;12.94;100.00;99385.47;6244729;23;19912;-84
2022/08/19 12:08:31;;;;;;;;;;;;;;;12.88;100.00;99383.19;6244743;23;20394;-84
2022/08/19 12:10:56;;;;;;;;;;;;;;;12.89;100.00;99383.09;6244715;23;19994;-84
2022/08/19 12:13:21;;;;;;;;;;;;;;;12.88;100.00;99383.19;6244618;23;19969;-85
2022/08/19 12:15:47;;;;;;;;;;;;;;;12.78;100.00;99384.66;6243433;23;20312;-86
2022/08/19 12:18:15;;;;;;;;;;;;;;;12.90;100.00;99387.44;6244664;23;19998;-85
2022/08/19 12:20:41;;;;;;;;;;;;;;;12.75;100.00;99393.69;6244782;23;19915;-87
2022/08/19 12:23:08;;;;;;;;;;;;;;;12.90;100.00;99387.44;6217774;23;20315;-84
2022/08/19 12:25:34;;;;;;;;;;;;;;;12.74;100.00;99402.59;6217850;23;19911;-85
2022/08/19 12:27:59;;;;;;;;;;;;;;;12.89;100.00;99390.19;6244851;23;19912;-86
2022/08/19 12:30:25;;;;;;;;;;;;;;;12.83;100.00;99386.09;6243799;23;20323;-85
2022/08/19 12:32:51;;;;;;;;;;;;;;;12.93;100.00;99388.22;6244646;23;19922;-85
2022/08/19 12:35:17;;;;;;;;;;;;;;;12.80;100.00;99391.59;6244610;23;19923;-85
2022/08/19 12:37:44;;;;;;;;;;;;;;;12.83;100.00;99394.09;6244782;23;19915;-84
2022/08/19 12:40:11;;;;;;;;;;;;;;;12.85;100.00;99383.38;6244723;23;19911;-86
2022/08/19 12:42:37;;;;;;;;;;;;;;;12.78;100.00;99388.19;6217719;23;20220;-85
2022/08/19 12:45:03;;;;;;;;;;;;;;;12.92;100.00;99386.50;6242773;23;19923;-85
2022/08/19 12:47:28;;;;;;;;;;;;;;;12.81;100.00;99385.34;6244577;23;19911;-84
2022/08/19 12:50:03;;;;;;;;;;;;;;;12.96;100.00;99383.59;6244567;23;19908;-86
2022/08/19 12:52:28;;;;;;;;;;;;;;;12.82;100.00;99384.38;6218027;23;19922;-86
2022/08/19 12:54:55;;;;;;;;;;;;;;;13.01;100.00;99391.28;6244576;23;19911;-84
2022/08/19 12:57:21;;;;;;;;;;;;;;;12.98;100.00;99389.66;6244329;23;20221;-85
2022/08/19 12:59:46;;;;;;;;;;;;;;;12.97;100.00;99392.41;6242997;23;19975;-85
2022/08/19 13:02:11;;;;;;;;;;;;;;;12.86;100.00;99383.28;6245670;23;20402;-85
2022/08/19 13:04:40;;;;;;;;;;;;;;;12.79;100.00;99389.88;6246388;23;19915;-86
2022/08/19 13:07:05;;;;;;;;;;;;;;;12.88;100.00;99388.50;6246383;23;19966;-84
2022/08/19 13:09:31;;;;;;;;;;;;;;;12.70;100.00;99382.44;6246510;23;19915;-84
2022/08/19 13:11:57;;;;;;;;;;;;;;;12.94;100.00;99379.28;6246100;23;19989;-85
2022/08/19 13:14:22;;;;;;;;;;;;;;;12.72;100.00;99389.38;6244682;23;19911;-84
2022/08/19 13:16:47;;;;;;;;;;;;;;;12.92;100.00;99384.69;6246300;23;20016;-85
2022/08/19 13:19:13;;;;;;;;;;;;;;;12.92;100.00;99381.19;6246303;23;20327;-85
2022/08/19 13:21:38;;;;;;;;;;;;;;;12.79;100.00;99373.94;6246152;23;19912;-83
2022/08/19 13:24:03;;;;;;;;;;;;;;;12.83;100.00;99378.13;6246373;23;20216;-83
2022/08/19 13:26:29;;;;;;;;;;;;;;;12.69;100.00;99376.28;6246025;23;19915;-84
2022/08/19 13:34:30;;;;;;;;;;;;;;;12.73;100.00;99379.59;6246172;23;19957;-85
2022/08/19 13:36:55;;;;;;;;;;;;;;;12.83;100.00;99379.94;6246053;23;19916;-85
2022/08/19 13:39:22;;;;;;;;;;;;;;;12.75;100.00;99376.84;6246034;23;19919;-84
2022/08/19 13:41:48;;;;;;;;;;;;;;;12.93;100.00;99380.25;6246600;23;19933;-84
2022/08/19 13:44:14;;;;;;;;;;;;;;;12.67;100.00;99379.97;6244270;23;20300;-85
2022/08/19 13:46:40;;;;;;;;;;;;;;;12.85;100.00;99386.88;6245997;23;19955;-85
2022/08/19 13:49:05;;;;;;;;;;;;;;;12.80;100.00;99380.97;6246156;23;20243;-84
2022/08/19 13:51:30;;;;;;;;;;;;;;;12.97;100.00;99371.13;6246178;23;20323;-85
2022/08/19 13:53:56;;;;;;;;;;;;;;;12.85;100.00;99372.72;6246075;23;20243;-86
2022/08/19 13:56:21;;;;;;;;;;;;;;;12.65;100.00;99381.84;6245973;23;19931;-84
2022/08/19 13:58:46;;;;;;;;;;;;;;;12.82;100.00;99372.91;6244341;23;20006;-85
2022/08/19 14:01:12;;;;;;;;;;;;;;;12.68;100.00;99361.28;6245960;23;20243;-85
2022/08/19 14:03:38;;;;;;;;;;;;;;;12.93;100.00;99369.63;6245697;23;19954;-86
2022/08/19 14:06:03;;;;;;;;;;;;;;;12.72;100.00;99361.97;6244676;23;20331;-85
2022/08/19 14:08:28;;;;;;;;;;;;;;;12.88;100.00;99370.75;6245739;23;20290;-84
2022/08/19 14:10:57;;;;;;;;;;;;;;;12.85;100.00;99376.22;6244265;23;19911;-85
2022/08/19 14:13:23;;;;;;;;;;;;;;;12.99;100.00;99362.13;6243916;23;20244;-84
2022/08/19 14:15:48;;;;;;;;;;;;;;;12.84;100.00;99366.56;6244348;23;19920;-84
2022/08/19 14:18:14;;;;;;;;;;;;;;;12.97;100.00;99364.03;6245786;23;19946;-86
2022/08/19 14:20:40;;;;;;;;;;;;;;;12.80;100.00;99364.16;6245798;23;19916;-86
2022/08/19 14:23:05;;;;;;;;;;;;;;;12.95;100.00;99359.75;6245473;23;20291;-87
2022/08/19 14:25:32;;;;;;;;;;;;;;;12.89;100.00;99359.16;6245663;23;19916;-85
2022/08/19 14:27:58;;;;;;;;;;;;;;;12.80;100.00;99365.03;6245654;23;20331;-84
2022/08/19 14:30:33;;;;;;;;;;;;;;;12.95;100.00;99354.41;6243859;23;19918;-85
2022/08/19 14:32:59;;;;;;;;;;;;;;;12.75;100.00;99359.13;6245754;23;19912;-85
2022/08/19 14:35:26;;;;;;;;;;;;;;;12.92;100.00;99362.59;6218733;23;20298;-85
2022/08/19 14:37:55;;;;;;;;;;;;;;;12.79;100.00;99357.13;6245586;23;19969;-84
2022/08/19 14:40:25;;;;;;;;;;;;;;;12.89;100.00;99364.47;6245519;23;19934;-87
2022/08/19 14:42:50;;;;;;;;;;;;;;;12.86;100.00;99369.97;6245511;23;20392;-88
2022/08/19 14:45:16;;;;;;;;;;;;;;;12.77;100.00;99365.19;6243820;23;19920;-85
2022/08/19 14:47:41;;;;;;;;;;;;;;;12.81;100.00;99364.09;6243123;23;19999;-86
2022/08/19 14:50:08;;;;;;;;;;;;;;;12.65;100.00;99361.47;6244432;23;19908;-85
2022/08/19 14:52:46;;;;;;;;;;;;;;;;;;;;;
2022/08/19 14:55:12;;;;;;;;;;;;;;;12.98;100.00;99356.91;6245367;23;20002;-90
2022/08/19 14:57:39;;;;;;;;;;;;;;;12.94;100.00;99356.22;6218346;23;19947;-89
2022/08/19 15:05:41;;;;;;;;;;;;;;;12.63;100.00;99355.34;6280480;22;20084;-89
2022/08/19 15:08:07;;;;;;;;;;;;;;;12.84;100.00;99361.25;6305066;22;19946;-89
2022/08/19 15:10:32;;;;;;;;;;;;;;;12.73;100.00;99358.34;6279325;22;19954;-90
2022/08/19 15:13:05;;;;;;;;;;;;;;;12.77;100.00;99367.00;6279727;22;19911;-89
2022/08/19 15:15:34;;;;;;;;;;;;;;;12.60;100.00;99367.97;6273683;22;19997;-89
2022/08/19 15:21:13;;;;;;;;;;;;;;;;;;;;;
2022/08/19 15:23:39;;;;;;;;;;;;;;;12.51;100.00;99370.22;6298091;22;20398;-90
2022/08/19 15:34:37;;;;;;;;;;;;;;;12.58;100.00;99375.19;6303701;22;20238;-90
2022/08/19 15:37:05;;;;;;;;;;;;;;;12.52;100.00;99371.94;6279260;22;19946;-90
2022/08/19 15:44:37;;;;;;;;;;;;;;;12.78;100.00;99372.25;6301047;22;19923;-89
2022/08/19 15:47:05;;;;;;;;;;;;;;;12.57;100.00;99379.63;6304485;22;20362;-90
2022/08/19 15:52:32;;;;;;;;;;;;;;;12.57;100.00;99384.09;6278083;22;19997;-91
2022/08/19 15:55:00;;;;;;;;;;;;;;;12.70;100.00;99385.09;6278170;22;19957;-90
2022/08/19 16:08:49;;;;;;;;;;;;;;;12.79;100.00;99383.72;6305610;22;19968;-90
2022/08/19 16:14:29;;;;;;;;;;;;;;;12.54;100.00;99382.50;6271092;22;19915;-91
2022/08/19 16:19:37;;;;;;;;;;;;;;;12.63;100.00;99391.72;6305966;22;20001;-91
2022/08/19 16:22:04;;;;;;;;;;;;;;;12.78;100.00;99382.88;6304389;22;19918;-90
2022/08/19 16:30:19;;;;;;;;;;;;;;;12.74;100.00;99391.97;6304376;22;19929;-90
2022/08/19 16:32:53;;;;;;;;;;;;;;;12.63;100.00;99399.69;6278441;22;19915;-92
2022/08/19 16:38:32;;;;;;;;;;;;;;;;;;;;;
2022/08/19 16:41:03;;;;;;;;;;;;;;;12.86;100.00;99407.19;6308034;22;20002;-90
2022/08/19 16:52:20;;;;;;;;;;;;;;;;;;;;;
2022/08/19 16:57:42;;;;;;;;;;;;;;;;;;;;;
2022/08/19 17:00:25;;;;;;;;;;;;;;;12.88;100.00;99404.47;6295748;22;19965;-91
2022/08/19 17:08:57;;;;;;;;;;;;;;;12.90;100.00;99414.03;6301707;22;19926;-89
2022/08/19 17:19:35;;;;;;;;;;;;;;;12.76;100.00;99424.63;6271163;22;19931;-89
2022/08/19 17:22:11;;;;;;;;;;;;;;;12.62;100.00;99429.88;6306644;22;19915;-91
2022/08/19 17:24:41;;;;;;;;;;;;;;;12.71;100.00;99427.53;6279598;22;19918;-90
2022/08/19 17:35:28;;;;;;;;;;;;;;;12.72;100.00;99433.72;6300159;22;19918;-89
2022/08/19 17:44:16;;;;;;;;;;;;;;;12.46;100.00;99436.06;6305034;22;19973;-89
2022/08/19 17:46:43;;;;;;;;;;;;;;;12.31;100.00;99432.44;6279816;22;19915;-89
2022/08/19 17:49:18;;;;;;;;;;;;;;;12.47;100.00;99432.44;6280187;22;20323;-89
2022/08/19 17:51:48;;;;;;;;;;;;;;;12.24;100.00;99440.84;6279203;22;20077;-88
2022/08/19 17:54:17;;;;;;;;;;;;;;;12.36;100.00;99448.13;6306181;22;20275;-88
2022/08/19 17:56:53;;;;;;;;;;;;;;;12.26;100.00;99450.44;6264929;22;19919;-89
2022/08/19 17:59:39;;;;;;;;;;;;;;;12.22;100.00;99448.03;6297938;22;19916;-90
2022/08/19 18:02:07;;;;;;;;;;;;;;;12.42;100.00;99442.50;6299543;22;20081;-90
2022/08/19 18:09:53;;;;;;;;;;;;;;;12.27;100.00;99451.28;6297352;22;19923;-89
2022/08/19 18:12:46;;;;;;;;;;;;;;;12.16;100.00;99458.06;6303212;22;19911;-88
2022/08/19 18:15:12;;;;;;;;;;;;;;;12.25;100.00;99462.00;6304862;22;19957;-88
2022/08/19 18:17:46;;;;;;;;;;;;;;;12.16;100.00;99470.50;6278890;22;20406;-90
2022/08/19 18:20:13;;;;;;;;;;;;;;;12.11;100.00;99472.53;6280725;22;19911;-88
2022/08/19 18:22:41;;;;;;;;;;;;;;;12.22;100.00;99475.47;6250384;22;19911;-88
2022/08/19 18:25:32;;;;;;;;;;;;;;;12.15;100.00;99476.75;6280046;22;19929;-89
2022/08/19 18:28:34;;;;;;;;;;;;;;;12.36;100.00;99477.34;6278905;22;19914;-89
2022/08/19 18:31:02;;;;;;;;;;;;;;;12.29;100.00;99483.97;6306491;22;19968;-94
2022/08/19 18:53:50;;;;;;;;;;;;;;;12.45;100.00;99503.44;6193129;22;20372;-90
2022/08/19 18:56:36;;;;;;;;;;;;;;;12.30;100.00;99501.59;6305228;22;19950;-89
2022/08/19 19:04:33;;;;;;;;;;;;;;;12.31;100.00;99514.81;6276704;22;19930;-89
2022/08/19 19:09:36;;;;;;;;;;;;;;;12.36;100.00;99519.88;6300557;22;19934;-89
2022/08/19 19:14:37;;;;;;;;;;;;;;;12.43;100.00;99521.25;6301310;22;19927;-89
2022/08/19 19:17:25;;;;;;;;;;;;;;;12.30;100.00;99528.16;6278311;22;20000;-89
2022/08/19 19:19:53;;;;;;;;;;;;;;;12.48;100.00;99529.84;6304267;22;19922;-88
2022/08/19 19:22:20;;;;;;;;;;;;;;;12.34;100.00;99538.53;6278836;22;20001;-88
2022/08/19 19:36:55;;;;;;;;;;;;;;;12.41;100.00;99541.72;6298531;22;19930;-88
2022/08/19 20:00:01;;;;;;;;;;;;;;;12.57;100.00;99575.44;6293087;22;20707;-89
2022/08/19 20:02:58;;;;;;;;;;;;;;;12.39;100.00;99566.69;6242572;22;19946;-89
2022/08/19 20:06:06;;;;;;;;;;;;;;;12.34;100.00;99564.28;6123083;23;20305;-89
2022/08/19 20:14:03;;;;;;;;;;;;;;;12.40;100.00;99560.41;6265335;22;19923;-90
2022/08/19 20:16:29;;;;;;;;;;;;;;;12.51;100.00;99566.88;6211995;22;20318;-91
2022/08/19 20:21:20;;;;;;;;;;;;;;;12.57;100.00;99570.13;6308322;22;19964;-89
2022/08/19 20:24:06;;;;;;;;;;;;;;;12.44;100.00;99576.09;6307259;22;19972;-94
2022/08/19 20:26:31;;;;;;;;;;;;;;;12.46;100.00;99568.94;6279809;22;20241;-91
2022/08/19 20:29:00;;;;;;;;;;;;;;;12.51;100.00;99572.19;6306904;22;19989;-89
2022/08/19 20:31:28;;;;;;;;;;;;;;;12.36;100.00;99575.66;6307990;22;19965;-93
2022/08/19 20:33:56;;;;;;;;;;;;;;;12.56;100.00;99573.72;6306839;22;19911;-88
2022/08/19 20:36:23;;;;;;;;;;;;;;;12.40;100.00;99573.69;6279174;22;20002;-89
2022/08/19 20:38:57;;;;;;;;;;;;;;;12.58;100.00;99578.03;6308053;22;19915;-88
2022/08/19 20:41:23;;;;;;;;;;;;;;;12.50;100.00;99575.78;6305268;22;19922;-87
2022/08/19 20:47:08;;;;;;;;;;;;;;;12.62;100.00;99581.38;6292022;22;19997;-88
2022/08/19 20:50:02;;;;;;;;;;;;;;;;;;;;;
2022/08/19 20:52:57;;;;;;;;;;;;;;;12.63;100.00;99570.66;6306727;22;19998;-90
2022/08/19 21:01:30;;;;;;;;;;;;;;;12.76;100.00;99584.13;6289826;22;19919;-90
2022/08/19 21:03:55;;;;;;;;;;;;;;;12.64;100.00;99595.44;6305212;22;19915;-90
2022/08/19 21:09:19;;;;;;;;;;;;;;;12.72;100.00;99587.91;6260805;22;19911;-90
2022/08/19 21:11:44;;;;;;;;;;;;;;;12.88;100.00;99591.44;6307415;22;20045;-89
2022/08/19 21:14:12;;;;;;;;;;;;;;;12.79;100.00;99597.25;6306058;22;19946;-92
2022/08/19 21:16:37;;;;;;;;;;;;;;;12.96;100.00;99603.47;6307736;22;19919;-90
2022/08/19 21:19:03;;;;;;;;;;;;;;;12.80;100.00;99598.13;6280642;22;19918;-89
2022/08/19 21:21:29;;;;;;;;;;;;;;;12.95;100.00;99597.25;6279891;22;19946;-89
2022/08/19 21:24:11;;;;;;;;;;;;;;;12.79;100.00;99599.91;6280367;22;19918;-93
2022/08/19 21:26:37;;;;;;;;;;;;;;;12.92;100.00;99593.91;6280019;22;19911;-90
2022/08/19 21:29:07;;;;;;;;;;;;;;;12.83;100.00;99595.31;6295472;22;19915;-88
2022/08/19 21:34:29;;;;;;;;;;;;;;;12.88;100.00;99598.56;6299351;22;19934;-91
2022/08/19 21:37:07;;;;;;;;;;;;;;;12.77;100.00;99598.28;6267992;22;19915;-93
2022/08/19 21:42:41;;;;;;;;;;;;;;;12.90;100.00;99601.97;6182084;23;20425;-90
2022/08/19 21:45:17;;;;;;;;;;;;;;;;;;;;;
2022/08/19 21:48:13;;;;;;;;;;;;;;;15.56;100.00;99606.34;6307028;22;19989;-89
2022/08/19 21:50:38;;;;;;;;;;;;;;;13.93;100.00;99604.09;6279512;22;20242;-90
2022/08/19 21:53:15;;;;;;;;;;;;;;;13.59;100.00;99608.75;6280384;22;19949;-90
2022/08/19 21:55:54;;;;;;;;;;;;;;;;;;;;;
2022/08/19 21:58:40;;;;;;;;;;;;;;;13.59;100.00;99602.53;6307283;22;19990;-90
2022/08/19 22:01:07;;;;;;;;;;;;;;;13.56;100.00;99605.38;6278253;22;20250;-88
2022/08/19 22:03:55;;;;;;;;;;;;;;;13.53;100.00;99609.09;6270349;22;19996;-91
2022/08/19 22:06:38;;;;;;;;;;;;;;;;;;;;;
2022/08/19 22:09:10;;;;;;;;;;;;;;;13.49;100.00;99615.53;6120648;23;20392;-93
2022/08/19 22:11:38;;;;;;;;;;;;;;;13.42;100.00;99614.19;6119928;23;20276;-90
2022/08/19 22:16:59;;;;;;;;;;;;;;;17.67;100.00;99587.13;6151379;23;19924;-88
2022/08/19 22:19:25;;;;;;;;;;;;;;;15.02;100.00;99612.53;6143036;23;19920;-88
2022/08/19 22:21:53;;;;;;;;;;;;;;;14.13;100.00;99610.03;6118195;23;19917;-89
2022/08/19 22:24:18;;;;;;;;;;;;;;;13.94;100.00;99619.09;6143024;23;19913;-87
2022/08/19 22:26:43;;;;;;;;;;;;;;;13.65;100.00;99618.16;6119714;22;19995;-87
2022/08/19 22:29:09;;;;;;;;;;;;;;;13.68;100.00;99617.16;6120184;23;20394;-89
2022/08/19 22:31:37;;;;;;;;;;;;;;;13.60;100.00;99618.44;6143661;22;19917;-88
2022/08/19 22:34:05;;;;;;;;;;;;;;;13.56;100.00;99616.03;6143646;23;19955;-91
2022/08/19 22:36:40;;;;;;;;;;;;;;;13.56;100.00;99611.59;6118988;23;20259;-88
2022/08/19 22:39:05;;;;;;;;;;;;;;;13.47;100.00;99614.78;6121023;23;19921;-86
2022/08/19 22:41:32;;;;;;;;;;;;;;;13.53;100.00;99613.56;6121263;23;19913;-88
2022/08/19 22:43:57;;;;;;;;;;;;;;;13.37;100.00;99614.44;6118072;23;19917;-90
2022/08/19 22:46:30;;;;;;;;;;;;;;;13.51;100.00;99607.47;6118386;23;19948;-88
2022/08/19 22:48:55;;;;;;;;;;;;;;;13.37;100.00;99602.94;6144214;23;20004;-87
2022/08/19 22:54:36;;;;;;;;;;;;;;;13.37;100.00;99595.81;6119285;23;19920;-92
2022/08/19 22:57:12;;;;;;;;;;;;;;;13.53;100.00;99597.56;6137154;23;20245;-88
2022/08/19 22:59:48;;;;;;;;;;;;;;;13.40;100.00;99592.09;6118428;23;19917;-89
2022/08/19 23:02:24;;;;;;;;;;;;;;;13.52;100.00;99596.72;6118722;23;20296;-87
2022/08/19 23:04:52;;;;;;;;;;;;;;;13.38;100.00;99591.34;6203350;22;20231;-88
2022/08/19 23:07:21;;;;;;;;;;;;;;;13.52;100.00;99591.41;6305848;22;20014;-86
2022/08/19 23:09:54;;;;;;;;;;;;;;;13.34;100.00;99589.78;6306827;22;19918;-91
2022/08/19 23:12:29;;;;;;;;;;;;;;;13.44;100.00;99593.66;6305992;22;19933;-87
2022/08/19 23:15:18;;;;;;;;;;;;;;;13.31;100.00;99595.28;6278170;22;19911;-88
2022/08/19 23:17:46;;;;;;;;;;;;;;;13.45;100.00;99584.75;6279432;22;20319;-89
2022/08/19 23:20:23;;;;;;;;;;;;;;;;;;;;;